Time;durP1;ratioP1;P1;durP2;ratioP2;P2;SDS_P1;SDS_P2;PMS_P1;PMS_P2;Temp;Humidity;BMP_temperature;BMP_pressure;BME280_temperature;BME280_humidity;BME280_pressure;Samples;Min_cycle;Max_cycle;Signal;HPM_P1;HPM_P2
2022/01/26 00:00:30;;;;;;;14.50;5.68;;;;;;;0.33;100.00;99619.97;4340739;33;20090;-78
2022/01/26 00:05:59;;;;;;;13.50;5.82;;;;;;;0.47;100.00;99641.47;4342289;33;20069;-77
2022/01/26 00:08:26;;;;;;;11.63;5.90;;;;;;;0.19;100.00;99599.47;4340852;32;20058;-76
2022/01/26 00:10:53;;;;;;;12.25;6.85;;;;;;;0.52;100.00;99636.47;4343979;33;20039;-76
2022/01/26 00:13:19;;;;;;;9.82;6.15;;;;;;;0.54;100.00;99630.03;4344471;32;20048;-76
2022/01/26 00:15:46;;;;;;;12.70;6.40;;;;;;;0.21;100.00;99578.94;4342719;32;20067;-79
2022/01/26 00:18:14;;;;;;;13.75;6.10;;;;;;;0.12;100.00;99564.06;4340877;32;20056;-77
2022/01/26 00:20:49;;;;;;;14.73;6.75;;;;;;;0.42;100.00;99612.84;4340122;33;20513;-76
2022/01/26 00:23:48;;;;;;;14.18;6.75;;;;;;;0.24;100.00;99570.66;4346222;33;20075;-76
2022/01/26 00:26:17;;;;;;;15.40;6.53;;;;;;;0.33;100.00;99587.34;4342423;32;20077;-76
2022/01/26 00:39:47;;;;;;;11.70;6.30;;;;;;;0.57;100.00;99588.28;4336967;32;20036;-76
2022/01/26 00:42:13;;;;;;;15.07;6.93;;;;;;;0.67;100.00;99607.44;4358413;32;20061;-78
2022/01/26 00:44:45;;;;;;;18.05;8.25;;;;;;;0.58;100.00;99601.34;4353992;32;20040;-78
2022/01/26 00:47:12;;;;;;;14.57;7.12;;;;;;;0.67;100.00;99615.41;4359023;32;20035;-77
2022/01/26 00:49:38;;;;;;;15.85;8.07;;;;;;;0.44;100.00;99575.56;4347872;32;20065;-78
2022/01/26 00:52:07;;;;;;;17.52;7.50;;;;;;;0.27;100.00;99561.53;4354303;32;20039;-78
2022/01/26 00:54:34;;;;;;;18.52;9.48;;;;;;;0.66;100.00;99603.97;4356744;32;20066;-78
2022/01/26 00:57:07;;;;;;;17.05;8.43;;;;;;;0.45;100.00;99579.88;4358541;32;20075;-77
2022/01/26 00:59:34;;;;;;;20.23;8.68;;;;;;;0.70;100.00;99621.22;4359291;32;20057;-77
2022/01/26 01:02:01;;;;;;;17.15;7.93;;;;;;;0.44;100.00;99572.91;4358938;32;20065;-77
2022/01/26 01:04:27;;;;;;;15.15;7.93;;;;;;;0.70;100.00;99615.06;4338379;32;20384;-80
2022/01/26 01:06:58;;;;;;;19.62;9.10;;;;;;;0.62;100.00;99607.94;4350131;32;20365;-78
2022/01/26 01:09:30;;;;;;;21.55;8.68;;;;;;;0.43;100.00;99571.25;4342738;33;20065;-78
2022/01/26 01:11:57;;;;;;;19.27;9.52;;;;;;;0.72;100.00;99603.28;4339894;33;20047;-78
2022/01/26 01:14:24;;;;;;;17.62;9.35;;;;;;;0.74;100.00;99597.00;4356157;33;20065;-81
2022/01/26 01:16:53;;;;;;;17.65;8.50;;;;;;;0.76;100.00;99597.66;4342556;33;20039;-75
2022/01/26 01:19:35;;;;;;;18.00;9.20;;;;;;;0.59;100.00;99571.22;4341181;33;20044;-75
2022/01/26 01:30:43;;;;;;;18.92;10.00;;;;;;;0.50;100.00;99553.69;4305902;33;20039;-77
2022/01/26 01:33:14;;;;;;;24.45;11.93;;;;;;;0.72;100.00;99598.00;4313748;32;20064;-76
2022/01/26 01:35:43;;;;;;;;;;;;;;;0.51;100.00;99557.97;4321991;33;20037;-76
2022/01/26 01:38:15;;;;;;;28.00;12.70;;;;;;;0.80;100.00;99596.28;4312825;33;19962;-76
2022/01/26 01:40:47;;;;;;;22.80;10.82;;;;;;;0.75;100.00;99596.00;4324403;33;20040;-76
2022/01/26 01:43:14;;;;;;;;;;;;;;;0.68;100.00;99575.47;4311424;33;20060;-77
2022/01/26 01:45:46;;;;;;;23.45;10.70;;;;;;;0.67;100.00;99579.13;4324051;33;20658;-76
2022/01/26 01:48:17;;;;;;;21.55;10.82;;;;;;;0.53;100.00;99540.09;4324874;33;20080;-77
2022/01/26 01:50:45;;;;;;;24.27;11.20;;;;;;;0.82;100.00;99579.22;4323902;33;20040;-76
2022/01/26 01:53:16;;;;;;;25.30;10.60;;;;;;;0.74;100.00;99573.16;4321245;33;20036;-78
2022/01/26 01:55:48;;;;;;;23.02;11.57;;;;;;;0.54;100.00;99533.78;4323844;33;20085;-77
2022/01/26 01:58:18;;;;;;;21.23;9.10;;;;;;;0.66;100.00;99556.28;4327946;32;20062;-77
2022/01/26 02:00:46;;;;;;;26.50;11.02;;;;;;;0.84;100.00;99573.75;4355816;33;20406;-79
2022/01/26 02:03:12;;;;;;;26.42;10.45;;;;;;;0.60;100.00;99524.34;4345283;33;20044;-77
2022/01/26 02:05:39;;;;;;;21.20;10.05;;;;;;;0.87;100.00;99563.62;4340474;33;20056;-76
2022/01/26 02:08:05;;;;;;;20.02;10.70;;;;;;;0.78;100.00;99553.22;4327007;33;20037;-74
2022/01/26 02:10:33;;;;;;;22.60;10.07;;;;;;;0.75;100.00;99558.87;4341433;33;20048;-75
2022/01/26 02:13:09;;;;;;;27.23;10.73;;;;;;;0.82;100.00;99551.91;4324743;33;20040;-80
2022/01/26 02:15:45;;;;;;;26.80;13.00;;;;;;;0.63;100.00;99516.03;4330199;33;20040;-77
2022/01/26 02:18:36;;;;;;;27.90;10.95;;;;;;;0.90;100.00;99555.31;4341428;33;20065;-75
2022/01/26 03:02:05;;;;;;;19.08;8.38;;;;;;;0.75;100.00;99532.38;4353678;33;20115;-76
2022/01/26 03:04:42;;;;;;;22.25;9.02;;;;;;;0.92;100.00;99564.94;4349861;33;20130;-76
2022/01/26 03:09:44;;;;;;;24.02;8.60;;;;;;;0.63;100.00;99500.13;4341433;33;20070;-76
2022/01/26 03:12:17;;;;;;;21.02;7.95;;;;;;;0.58;100.00;99510.44;4346769;32;20051;-76
2022/01/26 03:14:52;;;;;;;14.30;7.22;;;;;;;0.88;100.00;99556.50;4347289;33;20035;-79
2022/01/26 03:20:13;;;;;;;16.85;7.80;;;;;;;0.86;100.00;99540.78;4305181;33;20036;-78
2022/01/26 03:33:13;;;;;;;11.02;6.75;;;;;;;0.82;100.00;99554.56;4355625;33;20040;-75
2022/01/26 03:35:48;;;;;;;21.98;8.43;;;;;;;0.70;100.00;99528.44;4345296;33;20120;-78
2022/01/26 03:41:09;;;;;;;17.73;7.90;;;;;;;0.78;100.00;99542.63;4340187;33;20039;-75
2022/01/26 03:43:36;;;;;;;20.73;8.93;;;;;;;0.79;100.00;99539.00;4341273;33;20163;-76
2022/01/26 03:46:03;;;;;;;14.02;7.20;;;;;;;0.78;100.00;99547.94;4355391;33;20070;-76
2022/01/26 03:48:29;;;;;;;16.92;8.15;;;;;;;0.78;100.00;99540.78;4342339;33;20020;-76
2022/01/26 03:50:55;;;;;;;19.98;8.13;;;;;;;0.76;100.00;99526.09;4333502;33;20033;-76
2022/01/26 03:53:22;;;;;;;18.73;9.13;;;;;;;0.53;100.00;99501.16;4338758;33;20062;-77
2022/01/26 03:55:49;;;;;;;19.87;8.73;;;;;;;0.70;100.00;99519.63;4340894;33;20755;-76
2022/01/26 03:58:21;;;;;;;15.20;8.30;;;;;;;0.82;100.00;99533.34;4340678;33;20061;-76
2022/01/26 04:00:48;;;;;;;14.32;7.35;;;;;;;0.62;100.00;99506.44;4325517;33;20041;-77
2022/01/26 04:03:15;;;;;;;21.45;9.45;;;;;;;0.78;100.00;99534.69;4324004;32;20036;-76
2022/01/26 04:05:42;;;;;;;18.17;7.87;;;;;;;0.52;100.00;99517.25;4345393;33;20081;-77
2022/01/26 04:08:15;;;;;;;23.00;8.55;;;;;;;0.46;100.00;99496.72;4356327;33;20035;-76
2022/01/26 04:13:08;;;;;;;16.30;8.43;;;;;;;0.86;100.00;99545.22;4353790;33;20462;-76
2022/01/26 04:15:35;;;;;;;17.73;7.97;;;;;;;0.55;100.00;99495.69;4354989;33;20036;-76
2022/01/26 04:18:05;;;;;;;14.70;8.55;;;;;;;0.82;100.00;99546.59;4348863;33;20459;-77
2022/01/26 04:20:37;;;;;;;15.35;8.05;;;;;;;0.82;100.00;99557.19;4352903;33;20032;-76
2022/01/26 04:25:52;;;;;;;15.85;7.35;;;;;;;0.83;100.00;99557.03;4324357;33;20058;-75
2022/01/26 04:28:28;;;;;;;15.18;6.95;;;;;;;0.79;100.00;99549.59;4341797;32;20337;-77
2022/01/26 04:30:54;;;;;;;15.20;6.50;;;;;;;0.76;100.00;99541.97;4349002;33;20040;-75
2022/01/26 04:33:21;;;;;;;17.67;7.95;;;;;;;0.74;100.00;99554.59;4342395;33;20040;-75
2022/01/26 04:35:48;;;;;;;21.80;6.65;;;;;;;0.18;100.00;99478.66;4342929;33;20068;-78
2022/01/26 04:41:02;;;;;;;12.75;5.57;;;;;;;0.44;100.00;99510.16;4351801;33;20039;-77
2022/01/26 04:43:32;;;;;;;9.65;5.78;;;;;;;0.63;100.00;99548.66;4354601;33;20093;-75
2022/01/26 04:45:59;;;;;;;12.50;5.85;;;;;;;0.71;100.00;99559.22;4353915;33;20167;-77
2022/01/26 04:48:26;;;;;;;10.75;5.57;;;;;;;0.76;100.00;99556.06;4353144;33;20050;-80
2022/01/26 04:50:53;;;;;;;11.20;5.47;;;;;;;0.41;100.00;99504.38;4354085;33;20105;-77
2022/01/26 04:53:20;;;;;;;14.85;5.93;;;;;;;0.41;100.00;99507.03;4345208;32;20467;-77
2022/01/26 04:55:46;;;;;;;18.35;6.37;;;;;;;0.36;100.00;99503.06;4350037;33;20044;-75
2022/01/26 04:58:13;;;;;;;16.15;6.72;;;;;;;0.68;100.00;99541.00;4339514;33;20032;-79
2022/01/26 05:00:40;;;;;;;12.82;6.90;;;;;;;0.81;100.00;99544.94;4353500;33;20379;-78
2022/01/26 05:03:07;;;;;;;14.65;7.57;;;;;;;0.81;100.00;99547.59;4354046;33;20074;-77
2022/01/26 05:05:33;;;;;;;17.00;7.57;;;;;;;0.79;100.00;99544.28;4339603;33;20017;-79
2022/01/26 05:08:00;;;;;;;17.83;6.78;;;;;;;0.78;100.00;99539.97;4354366;33;20415;-77
2022/01/26 05:10:28;;;;;;;18.55;8.48;;;;;;;0.49;100.00;99501.69;4338890;33;20049;-79
2022/01/26 05:12:55;;;;;;;14.70;7.72;;;;;;;0.47;100.00;99495.75;4339621;33;20032;-77
2022/01/26 05:15:23;;;;;;;15.00;7.57;;;;;;;0.44;100.00;99501.38;4355533;33;20097;-77
2022/01/26 05:17:50;;;;;;;16.30;8.50;;;;;;;0.47;100.00;99493.09;4330670;32;20046;-77
2022/01/26 05:20:17;;;;;;;14.38;8.05;;;;;;;0.62;100.00;99531.09;4339705;33;20036;-79
2022/01/26 05:22:44;;;;;;;18.67;9.07;;;;;;;0.72;100.00;99539.69;4337082;33;20062;-80
2022/01/26 05:25:12;;;;;;;14.65;7.45;;;;;;;0.69;100.00;99544.50;4338222;33;20046;-77
2022/01/26 05:27:39;;;;;;;14.87;8.00;;;;;;;0.63;100.00;99540.72;4353934;33;20396;-77
2022/01/26 05:30:12;;;;;;;12.70;7.05;;;;;;;0.66;100.00;99540.38;4348105;33;20040;-77
2022/01/26 05:32:38;;;;;;;18.77;8.13;;;;;;;0.63;100.00;99530.09;4324763;33;20036;-80
2022/01/26 05:35:05;;;;;;;16.05;8.85;;;;;;;0.32;100.00;99488.53;4325006;33;20353;-78
2022/01/26 05:37:32;;;;;;;19.98;9.52;;;;;;;0.49;100.00;99514.94;4339137;33;20036;-77
2022/01/26 05:40:06;;;;;;;24.05;9.93;;;;;;;0.39;100.00;99485.19;4339322;33;20388;-77
2022/01/26 05:42:35;;;;;;;20.17;9.27;;;;;;;0.66;100.00;99537.72;4327308;32;20032;-79
2022/01/26 05:45:05;;;;;;;17.35;8.20;;;;;;;0.39;100.00;99490.50;4350518;33;20431;-77
2022/01/26 05:47:33;;;;;;;18.45;7.68;;;;;;;0.65;100.00;99528.09;4352073;33;20031;-78
2022/01/26 05:50:01;;;;;;;15.43;7.18;;;;;;;0.60;100.00;99514.56;4349937;33;20384;-78
2022/01/26 05:52:27;;;;;;;15.57;6.90;;;;;;;0.64;100.00;99510.56;4338054;32;20416;-81
2022/01/26 05:54:54;;;;;;;15.32;6.43;;;;;;;0.18;100.00;99452.16;4355550;32;20073;-77
2022/01/26 05:57:20;;;;;;;15.02;6.55;;;;;;;-0.02;100.00;99415.50;4342647;33;20417;-78
2022/01/26 05:59:47;;;;;;;19.25;8.30;;;;;;;0.34;100.00;99475.91;4354971;33;20071;-77
2022/01/26 06:02:13;;;;;;;12.23;6.75;;;;;;;0.54;100.00;99509.94;4355070;33;20047;-80
2022/01/26 06:04:40;;;;;;;14.07;7.72;;;;;;;0.64;100.00;99526.47;4355827;33;20045;-81
2022/01/26 06:07:06;;;;;;;15.75;6.45;;;;;;;0.71;100.00;99540.66;4336445;32;20063;-77
2022/01/26 06:09:33;;;;;;;16.23;8.15;;;;;;;0.62;100.00;99533.75;4349079;32;20043;-78
2022/01/26 06:11:59;;;;;;;18.00;7.37;;;;;;;0.65;100.00;99538.69;4345103;32;20057;-78
2022/01/26 06:14:26;;;;;;;17.87;7.45;;;;;;;0.38;100.00;99494.12;4360250;32;20057;-78
2022/01/26 06:16:52;;;;;;;19.87;9.30;;;;;;;0.58;100.00;99532.47;4357271;32;20047;-78
2022/01/26 06:19:19;;;;;;;17.40;7.53;;;;;;;0.58;100.00;99516.56;4357684;32;20032;-77
2022/01/26 06:21:46;;;;;;;16.65;7.97;;;;;;;0.61;100.00;99526.00;4360772;32;20447;-77
2022/01/26 06:24:12;;;;;;;25.80;8.05;;;;;;;0.36;100.00;99492.47;4342803;32;20087;-78
2022/01/26 06:26:41;;;;;;;18.80;7.85;;;;;;;0.62;100.00;99523.16;4347326;32;20032;-78
2022/01/26 06:29:08;;;;;;;17.75;7.82;;;;;;;0.54;100.00;99517.88;4362287;32;20192;-77
2022/01/26 06:31:34;;;;;;;16.23;7.20;;;;;;;0.34;100.00;99486.50;4347932;32;20032;-79
2022/01/26 06:34:03;;;;;;;13.25;7.43;;;;;;;0.28;100.00;99479.25;4360318;32;20044;-78
2022/01/26 06:36:30;;;;;;;15.02;7.75;;;;;;;0.24;100.00;99483.25;4361184;32;20035;-78
2022/01/26 06:38:56;;;;;;;16.02;7.10;;;;;;;0.50;100.00;99524.56;4358778;32;20097;-77
2022/01/26 06:41:25;;;;;;;17.60;8.02;;;;;;;0.56;100.00;99513.25;4341260;33;20036;-78
2022/01/26 06:44:01;;;;;;;19.52;7.53;;;;;;;0.47;100.00;99506.34;4343037;33;20410;-78
2022/01/26 06:46:42;;;;;;;14.85;7.37;;;;;;;0.56;100.00;99507.97;4353995;33;20039;-78
2022/01/26 06:51:43;;;;;;;19.42;8.98;;;;;;;0.15;100.00;99465.75;4349271;33;20043;-78
2022/01/26 06:54:09;;;;;;;23.75;10.20;;;;;;;0.32;100.00;99485.88;4354433;33;20070;-79
2022/01/26 06:56:35;;;;;;;20.90;9.00;;;;;;;0.42;100.00;99501.56;4338630;32;21493;-79
2022/01/26 06:59:02;;;;;;;20.85;9.70;;;;;;;0.22;100.00;99466.69;4346009;33;20044;-80
2022/01/26 07:01:28;;;;;;;20.73;8.32;;;;;;;0.25;100.00;99482.25;4328850;33;20028;-81
2022/01/26 07:03:55;;;;;;;23.25;9.23;;;;;;;0.14;100.00;99458.78;4327303;33;20046;-81
2022/01/26 07:06:21;;;;;;;16.70;7.90;;;;;;;0.52;100.00;99515.41;4325842;33;20427;-80
2022/01/26 07:08:48;;;;;;;20.42;9.05;;;;;;;0.32;100.00;99485.88;4327954;33;20065;-78
2022/01/26 07:11:14;;;;;;;20.60;8.13;;;;;;;0.49;100.00;99505.16;4340153;33;20037;-79
2022/01/26 07:13:42;;;;;;;21.52;8.02;;;;;;;0.48;100.00;99497.37;4339484;33;20062;-79
2022/01/26 07:21:39;;;;;;;18.23;8.38;;;;;;;0.65;100.00;99501.59;4340685;32;20065;-79
2022/01/26 07:24:06;;;;;;;21.48;6.87;;;;;;;0.13;100.00;99412.13;4354901;33;20058;-80
2022/01/26 07:26:33;;;;;;;16.98;7.93;;;;;;;0.38;100.00;99462.34;4348790;33;20081;-79
2022/01/26 07:29:10;;;;;;;14.63;7.45;;;;;;;0.41;100.00;99469.94;4352868;33;20430;-80
2022/01/26 07:31:47;;;;;;;20.30;7.80;;;;;;;0.65;100.00;99512.19;4352388;33;20061;-81
2022/01/26 07:34:15;;;;;;;20.60;7.50;;;;;;;0.40;100.00;99465.63;4354968;33;20043;-81
2022/01/26 07:36:45;;;;;;;10.73;6.47;;;;;;;0.60;100.00;99505.78;4355068;33;20028;-81
2022/01/26 07:39:15;;;;;;;12.55;6.15;;;;;;;0.66;100.00;99503.25;4328397;33;20053;-80
2022/01/26 07:41:41;;;;;;;20.67;6.60;;;;;;;0.67;100.00;99520.81;4325103;32;20024;-81
2022/01/26 07:44:09;;;;;;;20.95;6.35;;;;;;;0.64;100.00;99493.81;4327373;33;20058;-80
2022/01/26 07:46:35;;;;;;;13.27;6.55;;;;;;;0.70;100.00;99511.69;4340266;32;20061;-80
2022/01/26 07:49:02;;;;;;;12.85;6.43;;;;;;;0.76;100.00;99507.53;4340263;33;20093;-81
2022/01/26 07:51:30;;;;;;;14.70;6.87;;;;;;;0.81;100.00;99515.78;4342531;33;20048;-83
2022/01/26 07:53:56;;;;;;;15.25;6.53;;;;;;;0.67;100.00;99496.97;4344683;33;20044;-80
2022/01/26 07:56:23;;;;;;;14.73;6.72;;;;;;;0.51;100.00;99467.87;4334297;33;20319;-79
2022/01/26 07:58:49;;;;;;;16.05;8.15;;;;;;;0.66;100.00;99497.97;4354327;33;20061;-79
2022/01/26 08:01:16;;;;;;;14.35;7.35;;;;;;;0.76;100.00;99507.53;4353991;33;20044;-81
2022/01/26 08:03:42;;;;;;;17.02;7.18;;;;;;;0.78;100.00;99505.50;4353599;33;20058;-77
2022/01/26 08:06:15;;;;;;;18.25;7.85;;;;;;;0.51;100.00;99462.59;4354649;33;20047;-79
2022/01/26 08:08:41;;;;;;;22.58;8.20;;;;;;;0.75;100.00;99505.87;4355090;33;20444;-78
2022/01/26 08:11:08;;;;;;;14.40;7.43;;;;;;;0.69;100.00;99496.78;4353244;33;20381;-81
2022/01/26 08:13:34;;;;;;;15.90;6.68;;;;;;;0.72;100.00;99502.56;4365028;32;20040;-79
2022/01/26 08:16:01;;;;;;;17.40;6.75;;;;;;;0.75;100.00;99506.72;4339744;33;20079;-79
2022/01/26 08:18:27;;;;;;;13.13;6.00;;;;;;;0.43;100.00;99459.97;4340407;33;20052;-79
2022/01/26 08:21:01;;;;;;;12.57;6.57;;;;;;;0.76;100.00;99504.87;4324967;33;20067;-79
2022/01/26 08:23:27;;;;;;;13.50;6.00;;;;;;;0.79;100.00;99501.88;4324922;33;20036;-80
2022/01/26 08:25:54;;;;;;;10.45;5.85;;;;;;;0.57;100.00;99450.47;4339857;33;20063;-79
2022/01/26 08:28:26;;;;;;;12.20;5.35;;;;;;;0.82;100.00;99494.38;4338920;33;20044;-79
2022/01/26 08:30:53;;;;;;;13.05;6.53;;;;;;;0.71;100.00;99495.59;4325253;33;20043;-79
2022/01/26 08:33:20;;;;;;;25.20;6.87;;;;;;;0.85;100.00;99495.88;4353613;33;20065;-78
2022/01/26 08:35:46;;;;;;;15.45;6.72;;;;;;;0.75;100.00;99489.97;4361468;32;20043;-75
2022/01/26 08:38:20;;;;;;;10.57;5.30;;;;;;;0.48;100.00;99447.03;4353117;32;20052;-75
2022/01/26 08:40:51;;;;;;;14.60;7.30;;;;;;;0.81;100.00;99490.06;4349204;33;20077;-75
2022/01/26 08:43:22;;;;;;;14.27;6.50;;;;;;;0.69;100.00;99494.16;4341723;33;20073;-74
2022/01/26 08:45:49;;;;;;;9.27;5.95;;;;;;;0.47;100.00;99445.41;4338912;33;20339;-75
2022/01/26 08:48:15;;;;;;;12.93;6.43;;;;;;;0.65;100.00;99493.66;4339259;33;20794;-75
2022/01/26 08:50:42;;;;;;;14.68;7.32;;;;;;;0.79;100.00;99496.56;4337949;33;20035;-75
2022/01/26 08:53:09;;;;;;;16.87;7.32;;;;;;;0.76;100.00;99496.91;4338630;33;20083;-74
2022/01/26 08:55:36;;;;;;;12.82;7.00;;;;;;;0.43;100.00;99455.53;4350775;33;20046;-78
2022/01/26 08:58:04;;;;;;;20.40;7.72;;;;;;;0.40;100.00;99449.72;4339189;33;20044;-74
2022/01/26 09:00:33;;;;;;;12.70;6.97;;;;;;;0.80;100.00;99496.41;4339856;33;20031;-74
2022/01/26 09:02:59;;;;;;;15.38;7.00;;;;;;;0.78;100.00;99494.91;4347120;32;20054;-75
2022/01/26 09:05:26;;;;;;;12.05;6.95;;;;;;;0.42;100.00;99448.56;4351504;33;20025;-78
2022/01/26 09:07:56;;;;;;;18.77;8.65;;;;;;;0.63;100.00;99506.25;4339016;33;20069;-74
2022/01/26 09:10:26;;;;;;;18.25;8.57;;;;;;;0.71;100.00;99498.25;4353967;33;20643;-74
2022/01/26 09:12:54;;;;;;;20.30;8.27;;;;;;;0.43;100.00;99449.38;4349206;33;20072;-74
2022/01/26 09:15:27;;;;;;;22.95;9.48;;;;;;;0.64;100.00;99489.38;4354059;33;20333;-76
2022/01/26 09:17:56;;;;;;;18.40;8.30;;;;;;;0.39;100.00;99442.81;4340929;33;20044;-74
2022/01/26 09:20:23;;;;;;;13.62;7.40;;;;;;;0.65;100.00;99491.00;4352620;33;20054;-74
2022/01/26 09:22:49;;;;;;;14.80;8.20;;;;;;;0.68;100.00;99485.34;4348575;33;20035;-74
2022/01/26 09:25:16;;;;;;;21.70;8.77;;;;;;;0.46;100.00;99443.75;4341824;33;20036;-77
2022/01/26 09:27:44;;;;;;;16.27;7.50;;;;;;;0.80;100.00;99492.91;4338068;33;20036;-74
2022/01/26 09:30:14;;;;;;;22.75;8.93;;;;;;;0.81;100.00;99483.97;4345128;33;20345;-74
2022/01/26 09:32:46;;;;;;;14.90;7.82;;;;;;;0.85;100.00;99474.66;4328364;33;20028;-74
2022/01/26 09:35:16;;;;;;;17.08;8.63;;;;;;;0.84;100.00;99475.66;4337998;33;20054;-76
2022/01/26 09:37:44;;;;;;;16.08;7.45;;;;;;;0.95;100.00;99485.03;4327997;33;20076;-74
2022/01/26 09:40:13;;;;;;;32.53;15.93;;;;;;;0.92;100.00;99480.91;4330016;33;20436;-75
2022/01/26 09:42:43;;;;;;;25.88;9.10;;;;;;;0.92;100.00;99465.00;4355681;33;20035;-74
2022/01/26 09:45:11;;;;;;;18.52;7.40;;;;;;;0.80;100.00;99435.44;4353046;33;20040;-75
2022/01/26 09:47:38;;;;;;;14.70;7.22;;;;;;;0.86;100.00;99452.44;4341523;33;20091;-74
2022/01/26 09:50:06;;;;;;;22.48;12.80;;;;;;;0.72;100.00;99423.03;4355845;33;20065;-76
2022/01/26 09:52:38;;;;;;;17.95;7.85;;;;;;;0.95;100.00;99458.53;4351680;32;20345;-75
2022/01/26 09:55:06;;;;;;;15.10;7.37;;;;;;;1.16;100.00;99465.81;4326096;33;20032;-78
2022/01/26 09:57:32;;;;;;;15.25;7.15;;;;;;;0.89;100.00;99430.88;4339390;33;20056;-74
2022/01/26 09:59:59;;;;;;;15.13;6.78;;;;;;;1.02;100.00;99459.44;4352178;32;20212;-74
2022/01/26 10:02:30;;;;;;;15.20;7.25;;;;;;;0.64;100.00;99383.34;4343958;32;20435;-75
2022/01/26 10:05:02;;;;;;;12.93;7.18;;;;;;;0.89;100.00;99417.62;4353459;33;20051;-79
2022/01/26 10:07:43;;;;;;;12.45;7.20;;;;;;;1.19;100.00;99460.16;4351955;33;20117;-75
2022/01/26 10:16:07;;;;;;;12.52;7.30;;;;;;;1.36;100.00;99460.87;4334655;33;20429;-74
2022/01/26 10:18:44;;;;;;;15.82;7.55;;;;;;;1.43;100.00;99469.75;4355554;32;20422;-74
2022/01/26 10:21:11;;;;;;;18.70;8.63;;;;;;;1.37;100.00;99447.41;4353196;33;20054;-75
2022/01/26 10:23:40;;;;;;;15.63;8.10;;;;;;;1.31;100.00;99429.56;4352726;33;20406;-73
2022/01/26 10:26:13;;;;;;;19.27;8.88;;;;;;;1.13;100.00;99408.63;4337729;33;20430;-75
2022/01/26 10:28:58;;;;;;;23.30;8.38;;;;;;;1.14;100.00;99414.78;4353366;33;20077;-75
2022/01/26 10:31:28;;;;;;;16.62;7.07;;;;;;;0.27;100.00;99257.78;4350754;33;20042;-77
2022/01/26 10:34:07;;;;;;;18.00;8.27;;;;;;;1.48;100.00;99432.06;4340661;33;20930;-74
2022/01/26 10:36:35;;;;;;;14.70;7.35;;;;;;;1.54;100.00;99434.78;4341050;33;20032;-75
2022/01/26 10:39:07;;;;;;;14.15;7.03;;;;;;;1.28;100.00;99384.81;4352800;32;20053;-75
2022/01/26 10:41:38;;;;;;;16.25;7.65;;;;;;;1.44;100.00;99427.09;4354702;32;20077;-74
2022/01/26 10:44:16;;;;;;;16.05;8.30;;;;;;;1.64;100.00;99421.25;4341004;33;20035;-75
2022/01/26 10:46:46;;;;;;;12.90;7.18;;;;;;;1.66;100.00;99427.22;4340869;33;20077;-74
2022/01/26 10:54:37;;;;;;;16.80;8.32;;;;;;;1.56;100.00;99377.03;4355028;33;20069;-73
2022/01/26 10:57:11;;;;;;;17.85;8.60;;;;;;;1.85;100.00;99422.37;4341206;33;20052;-73
2022/01/26 10:59:41;;;;;;;19.58;8.35;;;;;;;1.57;100.00;99373.38;4355443;33;20062;-73
2022/01/26 11:02:09;;;;;;;16.20;9.00;;;;;;;1.84;100.00;99404.81;4353574;33;20040;-76
2022/01/26 11:04:39;;;;;;;19.40;8.38;;;;;;;1.45;100.00;99337.69;4339977;33;20040;-74
2022/01/26 11:07:12;;;;;;;19.92;10.05;;;;;;;1.88;100.00;99422.81;4349870;32;20105;-74
2022/01/26 11:09:48;;;;;;;21.08;10.23;;;;;;;1.69;100.00;99370.28;4325804;33;20199;-72
2022/01/26 11:12:29;;;;;;;22.05;9.82;;;;;;;1.62;100.00;99359.56;4326587;33;20079;-73
2022/01/26 11:15:09;;;;;;;18.83;9.75;;;;;;;1.99;100.00;99418.88;4325747;32;20036;-75
2022/01/26 11:17:42;;;;;;;22.25;10.13;;;;;;;2.00;100.00;99404.59;4336981;33;20090;-77
2022/01/26 11:20:31;;;;;;;16.58;8.77;;;;;;;1.70;100.00;99356.81;4346568;33;20087;-73
2022/01/26 11:23:03;;;;;;;18.00;8.88;;;;;;;2.04;100.00;99389.94;4341095;33;20368;-76
2022/01/26 11:25:43;;;;;;;20.05;8.52;;;;;;;2.05;100.00;99407.53;4355213;33;20163;-73
2022/01/26 11:28:20;;;;;;;14.60;8.70;;;;;;;2.09;100.00;99392.88;4355505;33;20070;-73
2022/01/26 11:30:48;;;;;;;14.87;8.10;;;;;;;2.09;100.00;99398.19;4353165;33;20047;-78
2022/01/26 11:33:22;;;;;;;14.93;8.50;;;;;;;2.17;100.00;99397.22;4351399;32;20044;-74
2022/01/26 11:35:51;;;;;;;14.07;7.30;;;;;;;2.04;100.00;99351.94;4354382;33;20087;-73
2022/01/26 11:46:56;;;;;;;13.88;6.30;;;;;;;2.19;100.00;99392.56;4339166;33;20062;-74
2022/01/26 11:49:26;;;;;;;10.93;5.78;;;;;;;2.29;100.00;99376.34;4338287;33;20398;-74
2022/01/26 11:51:57;;;;;;;10.07;5.65;;;;;;;2.31;100.00;99387.59;4337668;33;20180;-74
2022/01/26 11:54:27;;;;;;;9.90;5.15;;;;;;;2.35;100.00;99375.59;4340050;33;20077;-74
2022/01/26 11:57:15;;;;;;;10.85;6.50;;;;;;;2.13;100.00;99348.16;4325409;33;20036;-74
2022/01/26 11:59:57;;;;;;;9.38;5.18;;;;;;;2.37;100.00;99368.25;4336917;33;20074;-74
2022/01/26 12:02:34;;;;;;;11.70;5.22;;;;;;;2.02;100.00;99333.50;4338258;33;20048;-74
2022/01/26 12:05:06;;;;;;;12.13;4.43;;;;;;;2.15;100.00;99341.66;4323702;33;20043;-76
2022/01/26 12:07:34;;;;;;;8.27;5.20;;;;;;;2.39;100.00;99371.53;4338797;33;20514;-74
2022/01/26 12:10:04;;;;;;;12.32;4.97;;;;;;;2.40;100.00;99362.56;4351793;33;20062;-74
2022/01/26 12:15:08;;;;;;;6.82;4.43;;;;;;;2.28;100.00;99364.03;4351147;33;20405;-76
2022/01/26 12:17:45;;;;;;;;;;;;;;;2.34;100.00;99368.63;4340048;33;20450;-74
2022/01/26 12:45:20;;;;;;;8.23;5.45;;;;;;;2.35;100.00;99364.97;4349372;32;20086;-74
2022/01/26 12:47:54;;;;;;;11.57;6.40;;;;;;;2.41;100.00;99369.53;4336856;32;20047;-74
2022/01/26 12:50:28;;;;;;;11.98;7.43;;;;;;;2.42;100.00;99365.84;4339154;32;20051;-78
2022/01/26 12:52:57;;;;;;;11.48;6.68;;;;;;;2.43;100.00;99364.84;4338466;33;20415;-74
2022/01/26 12:55:32;;;;;;;15.10;8.02;;;;;;;2.39;100.00;99368.06;4340370;32;20060;-73
2022/01/26 12:58:08;;;;;;;14.07;6.93;;;;;;;2.40;100.00;99365.22;4338510;32;20094;-75
2022/01/26 13:00:45;;;;;;;14.48;7.20;;;;;;;2.37;100.00;99363.75;4348871;33;20372;-74
2022/01/26 13:03:19;;;;;;;15.48;6.93;;;;;;;2.31;100.00;99369.00;4351929;32;20174;-74
2022/01/26 13:05:46;;;;;;;11.02;6.03;;;;;;;2.36;100.00;99367.44;4354234;33;20102;-78
2022/01/26 13:08:14;;;;;;;16.00;7.85;;;;;;;2.14;100.00;99325.91;4350458;32;20062;-75
2022/01/26 13:10:41;;;;;;;13.25;7.95;;;;;;;2.39;100.00;99360.91;4354965;33;20084;-74
2022/01/26 13:13:14;;;;;;;16.45;9.05;;;;;;;2.05;100.00;99319.88;4354498;33;20204;-75
2022/01/26 13:15:51;;;;;;;14.93;8.93;;;;;;;2.33;100.00;99357.19;4341448;32;20079;-75
2022/01/26 13:18:44;;;;;;;15.68;7.60;;;;;;;2.33;100.00;99366.97;4341162;33;20044;-74
2022/01/26 13:27:16;;;;;;;13.95;7.93;;;;;;;2.28;100.00;99353.41;4354776;33;20036;-78
2022/01/26 13:30:10;;;;;;;13.27;7.65;;;;;;;2.27;100.00;99349.94;4343212;33;20040;-75
2022/01/26 13:35:39;;;;;;;16.98;9.65;;;;;;;2.05;100.00;99305.78;4355178;33;20047;-74
2022/01/26 13:41:04;;;;;;;13.62;8.35;;;;;;;2.11;100.00;99320.97;4342588;33;20078;-74
2022/01/26 13:46:51;;;;;;;15.63;7.53;;;;;;;2.28;100.00;99350.75;4352694;33;20392;-75
2022/01/26 13:59:43;;;;;;;18.45;8.48;;;;;;;2.30;100.00;99351.41;4340470;33;20044;-75
2022/01/26 14:02:11;;;;;;;14.60;5.95;;;;;;;2.24;100.00;99352.97;4326694;33;20109;-75
2022/01/26 14:04:40;;;;;;;10.20;6.55;;;;;;;1.91;100.00;99318.06;4350652;32;20047;-75
2022/01/26 14:07:09;;;;;;;11.77;7.22;;;;;;;1.99;100.00;99296.72;4339490;33;20069;-74
2022/01/26 14:09:37;;;;;;;14.95;7.15;;;;;;;2.02;100.00;99279.59;4354217;33;20102;-75
2022/01/26 14:12:10;;;;;;;6.35;4.80;;;;;;;1.90;100.00;99271.25;4352234;33;20051;-74
2022/01/26 14:14:42;;;;;;;12.18;7.25;;;;;;;2.13;100.00;99341.00;4353507;32;20056;-74
2022/01/26 14:17:16;;;;;;;11.77;7.25;;;;;;;2.26;100.00;99344.81;4340988;33;20067;-74
2022/01/26 14:28:06;;;;;;;12.77;7.18;;;;;;;2.23;100.00;99339.88;4362099;32;20399;-73
2022/01/26 14:52:48;;;;;;;11.95;6.45;;;;;;;1.85;100.00;99332.09;4365476;32;20057;-74
2022/01/26 14:55:28;;;;;;;13.93;7.12;;;;;;;1.97;100.00;99346.53;4357136;32;20072;-75
2022/01/26 15:00:53;;;;;;;12.75;7.62;;;;;;;1.95;100.00;99335.28;4339004;33;20070;-74
2022/01/26 15:08:53;;;;;;;13.88;5.78;;;;;;;1.62;100.00;99306.47;4338718;33;20069;-74